createdAt,value
2018-04-28T00:00:49.539Z,12.48
2018-04-28T00:01:49.454Z,12.44
2018-04-28T00:02:49.359Z,12.58
2018-04-28T00:03:49.301Z,12.40
2018-04-28T00:04:49.181Z,12.48
2018-04-28T00:05:49.079Z,12.61
2018-04-28T00:06:48.990Z,12.73
2018-04-28T00:07:48.902Z,12.74
2018-04-28T00:08:48.840Z,12.70
2018-04-28T00:09:48.715Z,12.62
2018-04-28T00:10:48.624Z,12.55
2018-04-28T00:11:48.531Z,12.55
2018-04-28T00:12:48.441Z,12.40
2018-04-28T00:13:48.380Z,12.44
2018-04-28T00:14:48.257Z,12.56
2018-04-28T00:15:48.162Z,12.51
2018-04-28T00:16:48.070Z,12.52
2018-04-28T00:17:47.983Z,12.48
2018-04-28T00:18:47.919Z,12.49
2018-04-28T00:19:47.800Z,12.52
2018-04-28T00:20:47.703Z,12.51
2018-04-28T00:21:47.615Z,12.67
2018-04-28T00:22:47.523Z,12.61
2018-04-28T00:23:47.461Z,12.66
2018-04-28T00:24:47.337Z,12.84
2018-04-28T00:25:47.244Z,12.76
2018-04-28T00:26:47.152Z,12.59
2018-04-28T00:27:47.061Z,12.67
2018-04-28T00:28:47.002Z,12.63
2018-04-28T00:29:46.877Z,12.63
2018-04-28T00:30:46.787Z,12.69
2018-04-28T00:31:46.697Z,12.69
2018-04-28T00:32:46.604Z,12.69
2018-04-28T00:33:46.541Z,12.67
2018-04-28T00:34:46.417Z,12.67
2018-04-28T00:35:46.327Z,12.55
2018-04-28T00:36:46.233Z,12.52
2018-04-28T00:37:46.143Z,12.59
2018-04-28T00:38:46.080Z,12.55
2018-04-28T00:39:45.960Z,12.55
2018-04-28T00:40:45.870Z,12.46
2018-04-28T00:41:45.775Z,12.40
2018-04-28T00:42:45.685Z,12.37
2018-04-28T00:43:45.595Z,12.41
2018-04-28T00:44:45.532Z,12.46
2018-04-28T00:45:45.407Z,12.38
2018-04-28T00:46:45.321Z,12.38
2018-04-28T00:47:45.224Z,12.43
2018-04-28T00:48:45.137Z,12.46
2018-04-28T00:49:45.074Z,12.51
2018-04-28T00:50:44.949Z,12.44
2018-04-28T00:51:44.854Z,12.43
2018-04-28T00:52:44.767Z,12.37
2018-04-28T00:53:44.674Z,12.41
2018-04-28T00:54:44.582Z,12.44
2018-04-28T00:55:44.519Z,12.41
2018-04-28T00:56:44.404Z,12.54
2018-04-28T00:57:44.310Z,12.55
2018-04-28T00:58:44.315Z,12.59
2018-04-28T00:59:44.122Z,12.89
2018-04-28T01:00:44.061Z,12.80
2018-04-28T01:01:43.941Z,12.89
2018-04-28T01:02:43.850Z,12.80
2018-04-28T01:03:43.759Z,12.67
2018-04-28T01:04:43.664Z,12.67
2018-04-28T01:05:43.698Z,12.46
2018-04-28T01:06:43.480Z,12.56
2018-04-28T01:07:43.391Z,12.56
2018-04-28T01:08:43.296Z,12.48
2018-04-28T01:09:43.207Z,12.46
2018-04-28T01:10:43.144Z,12.44
2018-04-28T01:11:43.021Z,12.49
2018-04-28T01:12:43.024Z,12.37
2018-04-28T01:13:42.839Z,12.37
2018-04-28T01:14:42.749Z,12.62
2018-04-28T01:15:42.689Z,12.59
2018-04-28T01:16:42.561Z,12.79
2018-04-28T01:17:42.485Z,12.80
2018-04-28T01:18:42.382Z,12.77
2018-04-28T01:19:42.381Z,12.66
2018-04-28T01:20:42.227Z,12.67
2018-04-28T01:21:42.105Z,12.71
2018-04-28T01:22:42.014Z,12.66
2018-04-28T01:23:41.918Z,12.61
2018-04-28T01:24:41.829Z,12.58
2018-04-28T01:25:41.766Z,12.69
2018-04-28T01:26:41.742Z,12.59
2018-04-28T01:27:41.553Z,12.56
2018-04-28T01:28:41.461Z,12.61
2018-04-28T01:29:41.367Z,12.49
2018-04-28T01:30:41.281Z,12.48
2018-04-28T01:31:41.216Z,12.56
2018-04-28T01:32:41.092Z,12.67
2018-04-28T01:33:41.103Z,12.80
2018-04-28T01:34:40.912Z,12.79
2018-04-28T01:35:40.817Z,12.77
2018-04-28T01:36:41.713Z,12.85
2018-04-28T01:37:40.642Z,12.69
2018-04-28T01:38:40.567Z,12.44
2018-04-28T01:39:40.451Z,12.26
2018-04-28T01:40:40.455Z,12.11
2018-04-28T01:41:40.303Z,12.23
2018-04-28T01:42:40.177Z,12.03
2018-04-28T01:43:40.086Z,11.96
2018-04-28T01:44:39.991Z,11.93
2018-04-28T01:45:39.903Z,11.81
2018-04-28T01:46:39.839Z,11.78
2018-04-28T01:47:39.814Z,11.77
2018-04-28T01:48:39.624Z,11.60
2018-04-28T01:49:39.535Z,11.63
2018-04-28T01:50:39.443Z,11.51
2018-04-28T01:51:39.380Z,11.57
2018-04-28T01:52:39.256Z,11.60
2018-04-28T01:53:39.166Z,11.57
2018-04-28T01:54:39.172Z,11.60
2018-04-28T01:55:38.981Z,11.62
2018-04-28T01:56:38.892Z,11.69
2018-04-28T01:57:38.828Z,11.60
2018-04-28T01:58:38.713Z,11.60
2018-04-28T01:59:38.615Z,11.57
2018-04-28T02:00:38.524Z,11.51
2018-04-28T02:01:38.527Z,11.46
2018-04-28T02:02:38.371Z,11.28
2018-04-28T02:03:38.253Z,11.24
2018-04-28T02:04:38.155Z,11.11
2018-04-28T02:05:38.065Z,11.01
2018-04-28T02:06:37.973Z,10.95
2018-04-28T02:07:37.912Z,10.83
2018-04-28T02:08:37.886Z,10.84
2018-04-28T02:09:37.696Z,10.86
2018-04-28T02:10:37.606Z,10.78
2018-04-28T02:11:37.512Z,10.93
2018-04-28T02:12:37.422Z,10.93
2018-04-28T02:13:37.359Z,10.95
2018-04-28T02:14:37.241Z,10.99
2018-04-28T02:15:37.243Z,10.98
2018-04-28T02:16:37.053Z,10.93
2018-04-28T02:17:36.962Z,10.90
2018-04-28T02:18:36.900Z,10.80
2018-04-28T02:19:36.777Z,10.75
2018-04-28T02:20:36.698Z,10.73
2018-04-28T02:21:36.590Z,10.78
2018-04-28T02:22:36.497Z,10.69
2018-04-28T02:23:36.440Z,10.58
2018-04-28T02:24:36.315Z,10.69
2018-04-28T02:25:36.224Z,10.63
2018-04-28T02:26:36.130Z,10.66
2018-04-28T02:27:36.043Z,10.63
2018-04-28T02:28:36.728Z,10.58
2018-04-28T02:29:35.854Z,10.63
2018-04-28T02:30:36.724Z,10.51
2018-04-28T02:31:35.669Z,10.58
2018-04-28T02:32:35.577Z,10.63
2018-04-28T02:33:35.515Z,10.69
2018-04-28T02:34:35.392Z,10.57
2018-04-28T02:35:35.305Z,10.63
2018-04-28T02:36:35.204Z,10.57
2018-04-28T02:37:35.115Z,10.42
2018-04-28T02:38:35.034Z,10.43
2018-04-28T02:39:34.960Z,10.39
2018-04-28T02:40:34.837Z,10.36
2018-04-28T02:41:34.744Z,10.36
2018-04-28T02:42:34.652Z,10.28
2018-04-28T02:43:34.563Z,10.28
2018-04-28T02:44:34.504Z,10.29
2018-04-28T02:45:34.378Z,10.26
2018-04-28T02:46:34.284Z,10.29
2018-04-28T02:47:34.189Z,10.25
2018-04-28T02:48:34.097Z,10.28
2018-04-28T02:49:34.034Z,10.28
2018-04-28T02:50:33.914Z,10.38
2018-04-28T02:51:33.817Z,10.36
2018-04-28T02:52:33.726Z,10.39
2018-04-28T02:53:33.636Z,10.47
2018-04-28T02:54:33.596Z,10.62
2018-04-28T02:55:33.454Z,10.65
2018-04-28T02:56:33.357Z,10.60
2018-04-28T02:57:33.266Z,10.62
2018-04-28T02:58:33.170Z,10.66
2018-04-28T02:59:33.078Z,10.69
2018-04-28T03:00:33.026Z,10.70
2018-04-28T03:01:32.894Z,10.76
2018-04-28T03:02:32.803Z,10.81
2018-04-28T03:03:32.706Z,10.90
2018-04-28T03:04:32.611Z,10.93
2018-04-28T03:05:32.549Z,10.91
2018-04-28T03:06:32.426Z,10.95
2018-04-28T03:07:32.334Z,10.94
2018-04-28T03:08:32.239Z,10.88
2018-04-28T03:09:32.149Z,10.88
2018-04-28T03:10:32.115Z,10.83
2018-04-28T03:11:31.967Z,10.80
2018-04-28T03:12:31.876Z,10.75
2018-04-28T03:13:31.784Z,10.76
2018-04-28T03:14:31.688Z,10.81
2018-04-28T03:15:31.645Z,10.72
2018-04-28T03:16:31.502Z,10.72
2018-04-28T03:17:31.408Z,10.68
2018-04-28T03:18:31.317Z,10.58
2018-04-28T03:19:31.226Z,10.60
2018-04-28T03:20:31.132Z,10.55
2018-04-28T03:21:31.071Z,10.57
2018-04-28T03:22:30.952Z,10.38
2018-04-28T03:23:30.856Z,10.54
2018-04-28T03:24:30.765Z,10.46
2018-04-28T03:25:30.671Z,10.52
2018-04-28T03:26:30.610Z,10.65
2018-04-28T03:27:30.486Z,10.58
2018-04-28T03:28:30.394Z,10.72
2018-04-28T03:29:30.304Z,10.86
2018-04-28T03:30:30.209Z,10.88
2018-04-28T03:31:30.176Z,11.05
2018-04-28T03:32:30.025Z,11.13
2018-04-28T03:33:29.935Z,11.06
2018-04-28T03:34:29.839Z,11.17
2018-04-28T03:35:29.747Z,11.19
2018-04-28T03:36:29.691Z,11.19
2018-04-28T03:37:29.571Z,11.28
2018-04-28T03:38:29.470Z,11.26
2018-04-28T03:39:29.376Z,11.39
2018-04-28T03:40:29.285Z,11.44
2018-04-28T03:41:29.201Z,11.51
2018-04-28T03:42:29.148Z,11.54
2018-04-28T03:43:29.009Z,11.56
2018-04-28T03:44:28.916Z,11.59
2018-04-28T03:45:28.919Z,11.66
2018-04-28T03:46:28.731Z,11.64
2018-04-28T03:47:28.638Z,11.57
2018-04-28T03:48:28.577Z,11.53
2018-04-28T03:49:28.454Z,11.53
2018-04-28T03:50:28.359Z,11.56
2018-04-28T03:51:28.264Z,11.54
2018-04-28T03:52:28.283Z,11.49
2018-04-28T03:53:28.194Z,11.48
2018-04-28T03:54:27.992Z,11.48
2018-04-28T03:55:27.897Z,11.49
2018-04-28T03:56:27.805Z,11.42
2018-04-28T03:57:27.714Z,11.48
2018-04-28T03:58:27.655Z,11.49
2018-04-28T03:59:27.624Z,11.49
2018-04-28T04:00:27.437Z,11.44
2018-04-28T04:01:27.353Z,11.42
2018-04-28T04:02:27.255Z,11.46
2018-04-28T04:03:27.193Z,11.45
2018-04-28T04:04:27.068Z,11.44
2018-04-28T04:05:26.977Z,11.45
2018-04-28T04:06:26.981Z,11.45
2018-04-28T04:07:26.794Z,11.38
2018-04-28T04:08:26.700Z,11.30
2018-04-28T04:09:26.637Z,11.31
2018-04-28T04:10:26.516Z,11.23
2018-04-28T04:11:26.423Z,11.35
2018-04-28T04:12:26.330Z,11.21
2018-04-28T04:13:26.338Z,11.21
2018-04-28T04:14:26.178Z,11.26
2018-04-28T04:15:26.053Z,11.23
2018-04-28T04:16:25.968Z,11.16
2018-04-28T04:17:25.871Z,11.20
2018-04-28T04:18:25.776Z,11.16
2018-04-28T04:19:25.683Z,11.13
2018-04-28T04:20:25.717Z,11.16
2018-04-28T04:21:25.498Z,11.19
2018-04-28T04:22:25.407Z,11.09
2018-04-28T04:23:25.315Z,11.06
2018-04-28T04:24:25.220Z,11.12
2018-04-28T04:25:25.163Z,11.23
2018-04-28T04:26:25.077Z,11.17
2018-04-28T04:27:24.943Z,11.12
2018-04-28T04:28:24.853Z,11.19
2018-04-28T04:29:24.760Z,11.19
2018-04-28T04:30:24.700Z,11.19
2018-04-28T04:31:24.577Z,11.17
2018-04-28T04:32:24.486Z,11.23
2018-04-28T04:33:24.390Z,11.11
2018-04-28T04:34:24.301Z,11.19
2018-04-28T04:35:24.208Z,11.13
2018-04-28T04:36:24.146Z,11.20
2018-04-28T04:37:24.023Z,11.21
2018-04-28T04:38:23.931Z,11.16
2018-04-28T04:39:23.839Z,11.19
2018-04-28T04:40:23.752Z,11.23
2018-04-28T04:41:23.687Z,11.23
2018-04-28T04:42:23.664Z,11.21
2018-04-28T04:43:23.473Z,11.21
2018-04-28T04:44:23.377Z,11.19
2018-04-28T04:45:23.286Z,11.23
2018-04-28T04:46:23.224Z,11.26
2018-04-28T04:47:23.103Z,11.19
2018-04-28T04:48:23.011Z,11.24
2018-04-28T04:49:23.017Z,11.28
2018-04-28T04:50:22.829Z,11.24
2018-04-28T04:51:22.788Z,11.35
2018-04-28T04:52:22.645Z,11.48
2018-04-28T04:53:22.563Z,11.42
2018-04-28T04:54:22.462Z,11.45
2018-04-28T04:55:22.367Z,11.38
2018-04-28T04:56:22.376Z,11.44
2018-04-28T04:57:22.217Z,11.41
2018-04-28T04:58:22.097Z,11.46
2018-04-28T04:59:22.004Z,11.49
2018-04-28T05:00:21.911Z,11.51
2018-04-28T05:01:21.823Z,11.56
2018-04-28T05:02:21.729Z,11.51
2018-04-28T05:03:21.754Z,11.57
2018-04-28T05:04:21.545Z,11.59
2018-04-28T05:05:21.455Z,11.60
2018-04-28T05:06:21.361Z,11.64
2018-04-28T05:07:21.269Z,11.70
2018-04-28T05:08:21.212Z,11.66
2018-04-28T05:09:21.091Z,11.72
2018-04-28T05:10:20.997Z,11.78
2018-04-28T05:11:20.903Z,11.78
2018-04-28T05:12:20.812Z,11.82
2018-04-28T05:13:20.755Z,11.82
2018-04-28T05:14:20.640Z,11.78
2018-04-28T05:15:20.538Z,11.94
2018-04-28T05:16:20.445Z,11.93
2018-04-28T05:17:20.357Z,12.00
2018-04-28T05:18:20.317Z,11.98
2018-04-28T05:19:20.174Z,12.15
2018-04-28T05:20:20.081Z,12.11
2018-04-28T05:21:20.011Z,12.13
2018-04-28T05:22:19.900Z,12.31
2018-04-28T05:23:19.828Z,12.31
2018-04-28T05:24:19.751Z,12.37
2018-04-28T05:25:19.626Z,12.36
2018-04-28T05:26:19.534Z,12.52
2018-04-28T05:27:19.445Z,12.41
2018-04-28T05:28:19.356Z,12.54
2018-04-28T05:29:19.293Z,12.66
2018-04-28T05:30:19.174Z,12.66
2018-04-28T05:31:19.080Z,12.69
2018-04-28T05:32:18.989Z,12.77
2018-04-28T05:33:18.900Z,12.85
2018-04-28T05:34:18.819Z,12.89
2018-04-28T05:35:18.749Z,12.87
2018-04-28T05:36:18.627Z,12.84
2018-04-28T05:37:18.545Z,12.96
2018-04-28T05:38:18.446Z,13.03
2018-04-28T05:39:18.355Z,13.04
2018-04-28T05:40:18.309Z,12.98
2018-04-28T05:41:18.176Z,13.03
2018-04-28T05:42:18.086Z,13.03
2018-04-28T05:43:17.993Z,12.92
2018-04-28T05:44:17.904Z,13.04
2018-04-28T05:45:17.814Z,13.16
2018-04-28T05:46:17.754Z,13.16
2018-04-28T05:47:17.631Z,13.21
2018-04-28T05:48:17.626Z,13.27
2018-04-28T05:49:17.453Z,13.38
2018-04-28T05:50:17.364Z,13.29
2018-04-28T05:51:17.304Z,13.32
2018-04-28T05:52:17.183Z,13.46
2018-04-28T05:53:17.096Z,13.27
2018-04-28T05:54:17.007Z,13.50
2018-04-28T05:55:16.923Z,13.36
2018-04-28T05:56:16.825Z,13.48
2018-04-28T05:57:16.764Z,13.53
2018-04-28T05:58:16.646Z,13.62
2018-04-28T05:59:16.554Z,13.62
2018-04-28T06:00:16.470Z,13.68
2018-04-28T06:01:16.374Z,13.69
2018-04-28T06:02:16.321Z,13.59
2018-04-28T06:03:16.194Z,13.61
2018-04-28T06:04:16.108Z,13.72
2018-04-28T06:05:16.016Z,13.71
2018-04-28T06:06:15.929Z,13.65
2018-04-28T06:07:15.867Z,13.68
2018-04-28T06:08:15.748Z,13.69
2018-04-28T06:09:15.656Z,13.62
2018-04-28T06:10:15.570Z,13.66
2018-04-28T06:11:15.478Z,13.57
2018-04-28T06:12:15.421Z,13.53
2018-04-28T06:13:15.305Z,13.54
2018-04-28T06:14:15.209Z,13.53
2018-04-28T06:15:15.120Z,13.63
2018-04-28T06:16:15.029Z,13.61
2018-04-28T06:17:14.976Z,13.65
2018-04-28T06:18:14.853Z,13.63
2018-04-28T06:19:14.761Z,13.68
2018-04-28T06:20:14.732Z,13.65
2018-04-28T06:21:14.584Z,13.75
2018-04-28T06:22:14.498Z,13.79
2018-04-28T06:23:14.438Z,13.91
2018-04-28T06:24:14.316Z,13.84
2018-04-28T06:25:14.229Z,13.94
2018-04-28T06:26:14.137Z,13.91
2018-04-28T06:27:14.047Z,13.98
2018-04-28T06:28:13.989Z,13.98
2018-04-28T06:29:13.897Z,13.91
2018-04-28T06:30:13.782Z,13.98
2018-04-28T06:31:13.692Z,14.11
2018-04-28T06:32:13.603Z,14.23
2018-04-28T06:33:13.651Z,14.39
2018-04-28T06:34:13.424Z,14.41
2018-04-28T06:35:13.335Z,14.30
2018-04-28T06:36:13.248Z,14.34
2018-04-28T06:37:13.158Z,14.42
2018-04-28T06:38:13.117Z,14.46
2018-04-28T06:39:12.977Z,14.53
2018-04-28T06:40:12.993Z,14.78
2018-04-28T06:41:12.825Z,14.69
2018-04-28T06:42:12.714Z,14.71
2018-04-28T06:43:12.663Z,14.86
2018-04-28T06:44:12.539Z,14.79
2018-04-28T06:45:12.444Z,14.87
2018-04-28T06:46:12.357Z,14.82
2018-04-28T06:47:12.365Z,14.83
2018-04-28T06:48:12.181Z,15.03
2018-04-28T06:49:12.124Z,15.07
2018-04-28T06:50:12.004Z,15.20
2018-04-28T06:51:11.915Z,15.22
2018-04-28T06:52:11.827Z,15.40
2018-04-28T06:53:11.740Z,15.33
2018-04-28T06:54:11.777Z,15.66
2018-04-28T06:55:11.562Z,15.60
2018-04-28T06:56:11.476Z,15.53
2018-04-28T06:57:11.387Z,15.64
2018-04-28T06:58:11.299Z,15.38
2018-04-28T06:59:11.257Z,15.25
2018-04-28T07:00:11.120Z,15.33
2018-04-28T07:01:11.138Z,15.41
2018-04-28T07:02:10.946Z,15.71
2018-04-28T07:03:10.860Z,15.81
2018-04-28T07:04:10.801Z,15.86
2018-04-28T07:05:10.684Z,15.86
2018-04-28T07:06:10.595Z,15.89
2018-04-28T07:07:10.507Z,15.95
2018-04-28T07:08:10.519Z,15.88
2018-04-28T07:09:10.335Z,15.92
2018-04-28T07:10:10.280Z,15.86
2018-04-28T07:11:10.159Z,15.86
2018-04-28T07:12:10.079Z,15.76
2018-04-28T07:13:09.985Z,16.10
2018-04-28T07:14:09.899Z,16.54
2018-04-28T07:15:09.943Z,16.48
2018-04-28T07:16:09.725Z,16.59
2018-04-28T07:17:09.636Z,16.88
2018-04-28T07:18:09.554Z,17.02
2018-04-28T07:19:09.465Z,16.98
2018-04-28T07:20:09.439Z,17.46
2018-04-28T07:21:09.373Z,17.57
2018-04-28T07:22:09.300Z,17.47
2018-04-28T07:23:09.115Z,17.76
2018-04-28T07:24:09.032Z,17.79
2018-04-28T07:25:08.978Z,17.77
2018-04-28T07:26:08.860Z,17.33
2018-04-28T07:27:08.776Z,17.49
2018-04-28T07:28:08.686Z,17.53
2018-04-28T07:29:08.699Z,17.49
2018-04-28T07:30:08.553Z,17.47
2018-04-28T07:31:08.436Z,17.80
2018-04-28T07:32:08.343Z,18.10
2018-04-28T07:33:08.260Z,18.31
2018-04-28T07:34:08.178Z,18.54
2018-04-28T07:35:08.119Z,18.89
2018-04-28T07:36:08.102Z,18.90
2018-04-28T07:37:07.989Z,19.02
2018-04-28T07:38:07.832Z,19.01
2018-04-28T07:39:07.752Z,18.94
2018-04-28T07:40:07.694Z,18.83
2018-04-28T07:41:07.583Z,18.68
2018-04-28T07:42:07.493Z,18.72
2018-04-28T07:43:07.528Z,18.74
2018-04-28T07:44:07.325Z,18.54
2018-04-28T07:45:07.275Z,18.10
2018-04-28T07:46:07.159Z,18.34
2018-04-28T07:47:07.072Z,18.39
2018-04-28T07:48:06.990Z,18.68
2018-04-28T07:49:06.905Z,18.62
2018-04-28T07:50:06.948Z,18.72
2018-04-28T07:51:06.735Z,18.82
2018-04-28T07:52:06.658Z,18.91
2018-04-28T07:53:06.571Z,19.20
2018-04-28T07:54:06.488Z,18.91
2018-04-28T07:55:06.433Z,19.30
2018-04-28T07:56:06.443Z,19.24
2018-04-28T07:57:06.237Z,19.39
2018-04-28T07:58:06.149Z,19.92
2018-04-28T07:59:06.065Z,20.26
2018-04-28T08:00:06.012Z,19.94
2018-04-28T08:01:05.900Z,19.95
2018-04-28T08:02:05.817Z,20.04
2018-04-28T08:03:05.730Z,20.12
2018-04-28T08:04:05.650Z,20.04
2018-04-28T08:05:05.610Z,20.41
2018-04-28T08:06:05.483Z,20.27
2018-04-28T08:07:05.455Z,20.16
2018-04-28T08:08:05.317Z,20.17
2018-04-28T08:09:05.235Z,20.34
2018-04-28T08:10:05.157Z,20.41
2018-04-28T08:11:05.104Z,20.51
2018-04-28T08:12:04.989Z,20.82
2018-04-28T08:13:04.904Z,20.85
2018-04-28T08:14:04.823Z,20.66
2018-04-28T08:15:04.745Z,20.82
2018-04-28T08:16:04.689Z,20.71
2018-04-28T08:17:04.577Z,20.90
2018-04-28T08:18:04.493Z,21.30
2018-04-28T08:19:04.412Z,21.31
2018-04-28T08:20:04.333Z,21.27
2018-04-28T08:21:04.277Z,20.78
2018-04-28T08:22:04.168Z,20.97
2018-04-28T08:23:04.084Z,20.91
2018-04-28T08:24:04.002Z,20.81
2018-04-28T08:25:03.924Z,20.71
2018-04-28T08:26:03.875Z,21.12
2018-04-28T08:27:03.758Z,21.03
2018-04-28T08:28:03.677Z,20.60
2018-04-28T08:29:03.600Z,20.56
2018-04-28T08:30:03.514Z,20.57
2018-04-28T08:31:03.461Z,20.90
2018-04-28T08:32:03.354Z,20.88
2018-04-28T08:33:03.270Z,21.19
2018-04-28T08:34:03.189Z,20.90
2018-04-28T08:35:03.106Z,21.34
2018-04-28T08:36:03.058Z,21.31
2018-04-28T08:37:02.982Z,21.13
2018-04-28T08:38:02.867Z,20.88
2018-04-28T08:39:02.781Z,19.39
2018-04-28T08:40:02.703Z,19.28
2018-04-28T08:41:02.653Z,19.76
2018-04-28T08:42:02.541Z,20.35
2018-04-28T08:43:02.455Z,20.37
2018-04-28T08:44:02.379Z,20.69
2018-04-28T08:45:02.294Z,21.16
2018-04-28T08:46:02.250Z,21.36
2018-04-28T08:47:02.133Z,21.96
2018-04-28T08:48:02.064Z,22.14
2018-04-28T08:49:01.975Z,22.11
2018-04-28T08:50:01.891Z,22.01
2018-04-28T08:51:01.926Z,21.58
2018-04-28T08:52:01.731Z,21.42
2018-04-28T08:53:01.653Z,21.22
2018-04-28T08:54:01.570Z,21.28
2018-04-28T08:55:01.491Z,21.73
2018-04-28T08:56:01.439Z,21.36
2018-04-28T08:57:01.326Z,21.74
2018-04-28T08:58:01.251Z,21.77
2018-04-28T08:59:01.170Z,21.96
2018-04-28T09:00:01.091Z,22.04
2018-04-28T09:01:01.036Z,21.51
2018-04-28T09:02:00.926Z,21.52
2018-04-28T09:03:00.844Z,20.51
2018-04-28T09:04:00.768Z,20.37
2018-04-28T09:05:00.685Z,20.73
2018-04-28T09:06:00.605Z,21.51
2018-04-28T09:07:00.563Z,21.51
2018-04-28T09:08:00.443Z,21.59
2018-04-28T09:09:00.361Z,21.53
2018-04-28T09:10:00.285Z,21.98
2018-04-28T09:11:00.204Z,21.70
2018-04-28T09:12:00.155Z,21.06
2018-04-28T09:13:00.155Z,20.02
2018-04-28T09:13:59.963Z,19.58
2018-04-28T09:14:59.929Z,20.41
2018-04-28T09:15:59.800Z,20.93
2018-04-28T09:16:59.754Z,21.48
2018-04-28T09:17:59.641Z,21.09
2018-04-28T09:18:59.558Z,21.49
2018-04-28T09:19:59.573Z,22.04
2018-04-28T09:20:59.398Z,22.66
2018-04-28T09:21:59.356Z,23.44
2018-04-28T09:22:59.238Z,23.63
2018-04-28T09:23:59.156Z,23.67
2018-04-28T09:24:59.077Z,23.89
2018-04-28T09:25:58.999Z,23.62
2018-04-28T09:26:59.047Z,23.47
2018-04-28T09:27:58.836Z,21.48
2018-04-28T09:28:58.758Z,21.96
2018-04-28T09:29:58.679Z,22.35
2018-04-28T09:30:58.601Z,22.52
2018-04-28T09:31:58.548Z,22.88
2018-04-28T09:32:58.490Z,22.82
2018-04-28T09:33:58.454Z,22.85
2018-04-28T09:34:58.284Z,23.39
2018-04-28T09:35:58.200Z,22.84
2018-04-28T09:36:58.149Z,22.96
2018-04-28T09:37:58.048Z,21.59
2018-04-28T09:38:57.961Z,21.98
2018-04-28T09:39:57.972Z,22.31
2018-04-28T09:40:57.897Z,22.42
2018-04-28T09:41:57.753Z,23.07
2018-04-28T09:42:57.642Z,23.42
2018-04-28T09:43:57.561Z,23.49
2018-04-28T09:44:57.484Z,23.68
2018-04-28T09:45:57.405Z,23.54
2018-04-28T09:46:57.353Z,23.67
2018-04-28T09:47:57.340Z,23.49
2018-04-28T09:48:57.165Z,23.57
2018-04-28T09:49:57.088Z,23.64
2018-04-28T09:50:57.006Z,23.06
2018-04-28T09:51:56.928Z,23.52
2018-04-28T09:52:56.879Z,23.44
2018-04-28T09:53:56.771Z,23.53
2018-04-28T09:54:56.792Z,23.81
2018-04-28T09:55:56.611Z,23.79
2018-04-28T09:56:56.537Z,23.96
2018-04-28T09:57:56.487Z,24.27
2018-04-28T09:58:56.435Z,23.97
2018-04-28T09:59:56.295Z,23.89
2018-04-28T10:00:56.215Z,23.81
2018-04-28T10:01:56.275Z,23.11
2018-04-28T10:02:56.089Z,23.04
2018-04-28T10:03:55.981Z,23.47
2018-04-28T10:04:55.901Z,23.25
2018-04-28T10:05:55.888Z,23.81
2018-04-28T10:06:55.743Z,22.75
2018-04-28T10:07:55.697Z,22.46
2018-04-28T10:08:55.682Z,21.96
2018-04-28T10:09:55.511Z,21.94
2018-04-28T10:10:55.427Z,22.44
2018-04-28T10:11:55.356Z,22.99
2018-04-28T10:12:55.336Z,23.09
2018-04-28T10:13:55.190Z,23.54
2018-04-28T10:14:55.110Z,23.74
2018-04-28T10:15:55.032Z,23.67
2018-04-28T10:16:54.952Z,24.15
2018-04-28T10:17:54.903Z,24.68
2018-04-28T10:18:54.795Z,24.75
2018-04-28T10:19:54.716Z,25.04
2018-04-28T10:20:54.636Z,25.17
2018-04-28T10:21:54.559Z,24.86
2018-04-28T10:22:54.509Z,25.04
2018-04-28T10:23:54.399Z,23.71
2018-04-28T10:24:54.321Z,22.91
2018-04-28T10:25:54.240Z,22.46
2018-04-28T10:26:54.162Z,23.11
2018-04-28T10:27:54.115Z,22.67
2018-04-28T10:28:54.007Z,23.14
2018-04-28T10:29:53.927Z,23.35
2018-04-28T10:30:54.163Z,22.19
2018-04-28T10:31:53.770Z,22.24
2018-04-28T10:32:53.726Z,21.98
2018-04-28T10:33:53.612Z,21.83
2018-04-28T10:34:53.530Z,20.64
2018-04-28T10:35:53.458Z,21.08
2018-04-28T10:36:53.374Z,21.30
2018-04-28T10:37:53.425Z,21.73
2018-04-28T10:38:53.216Z,22.27
2018-04-28T10:39:53.137Z,22.72
2018-04-28T10:40:53.058Z,22.31
2018-04-28T10:41:52.977Z,21.70
2018-04-28T10:42:52.934Z,21.79
2018-04-28T10:43:52.913Z,21.68
2018-04-28T10:44:52.739Z,21.75
2018-04-28T10:45:52.658Z,21.03
2018-04-28T10:46:52.577Z,19.95
2018-04-28T10:47:52.532Z,20.50
2018-04-28T10:48:52.419Z,20.27
2018-04-28T10:49:52.338Z,20.73
2018-04-28T10:50:52.257Z,20.96
2018-04-28T10:51:52.176Z,20.71
2018-04-28T10:52:52.098Z,19.60
2018-04-28T10:53:52.138Z,19.61
2018-04-28T10:54:51.934Z,19.53
2018-04-28T10:55:51.852Z,19.70
2018-04-28T10:56:51.772Z,19.64
2018-04-28T10:57:51.692Z,19.80
2018-04-28T10:58:51.641Z,20.04
2018-04-28T10:59:51.536Z,20.42
2018-04-28T11:00:51.448Z,20.73
2018-04-28T11:01:51.366Z,20.46
2018-04-28T11:02:51.284Z,20.33
2018-04-28T11:03:51.232Z,20.79
2018-04-28T11:04:51.117Z,20.71
2018-04-28T11:05:51.036Z,20.38
2018-04-28T11:06:50.958Z,19.89
2018-04-28T11:07:50.872Z,20.05
2018-04-28T11:08:50.821Z,19.82
2018-04-28T11:09:50.712Z,19.21
2018-04-28T11:10:50.626Z,19.05
2018-04-28T11:11:50.545Z,19.27
2018-04-28T11:12:50.467Z,19.20
2018-04-28T11:13:50.415Z,19.25
2018-04-28T11:14:50.299Z,19.47
2018-04-28T11:15:50.216Z,19.53
2018-04-28T11:16:50.134Z,19.60
2018-04-28T11:17:50.051Z,19.76
2018-04-28T11:18:50.000Z,19.71
2018-04-28T11:19:49.979Z,19.61
2018-04-28T11:20:49.801Z,19.64
2018-04-28T11:21:49.719Z,19.58
2018-04-28T11:22:49.633Z,18.96
2018-04-28T11:23:49.582Z,18.66
2018-04-28T11:24:49.468Z,18.42
2018-04-28T11:25:49.425Z,18.36
2018-04-28T11:26:49.301Z,18.49
2018-04-28T11:27:49.220Z,18.57
2018-04-28T11:28:49.164Z,18.64
2018-04-28T11:29:49.053Z,18.32
2018-04-28T11:30:48.964Z,18.65
2018-04-28T11:31:48.882Z,18.76
2018-04-28T11:32:48.872Z,18.91
2018-04-28T11:33:48.744Z,19.05
2018-04-28T11:34:48.627Z,19.05
2018-04-28T11:35:48.542Z,19.12
2018-04-28T11:36:48.465Z,18.62
2018-04-28T11:37:48.378Z,18.44
2018-04-28T11:38:48.327Z,18.50
2018-04-28T11:39:48.205Z,18.59
2018-04-28T11:40:48.119Z,18.66
2018-04-28T11:41:48.038Z,18.65
2018-04-28T11:42:47.950Z,18.68
2018-04-28T11:43:47.898Z,18.72
2018-04-28T11:44:47.783Z,18.87
2018-04-28T11:45:47.699Z,19.01
2018-04-28T11:46:47.617Z,19.05
2018-04-28T11:47:47.527Z,18.96
2018-04-28T11:48:47.475Z,18.93
2018-04-28T11:49:47.361Z,18.91
2018-04-28T11:50:47.276Z,19.01
2018-04-28T11:51:47.186Z,19.09
2018-04-28T11:52:47.105Z,19.20
2018-04-28T11:53:47.053Z,19.25
2018-04-28T11:54:46.934Z,19.34
2018-04-28T11:55:46.849Z,19.20
2018-04-28T11:56:46.764Z,19.34
2018-04-28T11:57:46.678Z,19.32
2018-04-28T11:58:46.596Z,19.61
2018-04-28T11:59:46.541Z,19.75
2018-04-28T12:00:46.521Z,19.83
2018-04-28T12:01:46.338Z,19.85
2018-04-28T12:02:46.257Z,19.97
2018-04-28T12:03:46.172Z,20.05
2018-04-28T12:04:46.118Z,20.25
2018-04-28T12:05:46.035Z,20.33
2018-04-28T12:06:45.915Z,20.38
2018-04-28T12:07:45.831Z,20.56
2018-04-28T12:08:45.748Z,20.63
2018-04-28T12:09:45.693Z,20.20
2018-04-28T12:10:45.578Z,20.31
2018-04-28T12:11:45.496Z,20.23
2018-04-28T12:12:45.411Z,19.58
2018-04-28T12:13:45.325Z,19.30
2018-04-28T12:14:45.369Z,19.40
2018-04-28T12:15:45.158Z,19.67
2018-04-28T12:16:45.079Z,19.75
2018-04-28T12:17:44.989Z,19.94
2018-04-28T12:18:44.904Z,20.01
2018-04-28T12:19:44.852Z,20.17
2018-04-28T12:20:44.737Z,20.01
2018-04-28T12:21:44.751Z,20.07
2018-04-28T12:22:44.571Z,19.87
2018-04-28T12:23:44.486Z,19.92
2018-04-28T12:24:44.432Z,20.08
2018-04-28T12:25:44.326Z,20.40
2018-04-28T12:26:44.233Z,20.38
2018-04-28T12:27:44.149Z,20.51
2018-04-28T12:28:44.167Z,20.54
2018-04-28T12:29:44.071Z,20.50
2018-04-28T12:30:43.910Z,20.30
2018-04-28T12:31:43.817Z,20.33
2018-04-28T12:32:43.732Z,20.35
2018-04-28T12:33:43.648Z,20.30
2018-04-28T12:34:43.596Z,20.40
2018-04-28T12:35:43.574Z,20.60
2018-04-28T12:36:43.398Z,20.76
2018-04-28T12:37:43.314Z,20.75
2018-04-28T12:38:43.227Z,20.68
2018-04-28T12:39:43.183Z,20.56
2018-04-28T12:40:43.077Z,20.38
2018-04-28T12:41:42.979Z,20.66
2018-04-28T12:42:42.992Z,20.82
2018-04-28T12:43:42.811Z,20.94
2018-04-28T12:44:42.762Z,20.66
2018-04-28T12:45:42.645Z,20.97
2018-04-28T12:46:42.561Z,21.24
2018-04-28T12:47:42.478Z,21.45
2018-04-28T12:48:42.395Z,21.46
2018-04-28T12:49:42.445Z,21.45
2018-04-28T12:50:42.247Z,21.56
2018-04-28T12:51:42.144Z,21.48